createdAt,value
2022-07-25T00:01:55.070Z,8.05
2022-07-25T00:04:24.013Z,7.63
2022-07-25T00:06:51.440Z,8.13
2022-07-25T00:09:18.428Z,7.43
2022-07-25T00:11:45.431Z,6.78
2022-07-25T00:14:12.468Z,7.00
2022-07-25T00:16:40.157Z,6.65
2022-07-25T00:19:07.268Z,7.32
2022-07-25T00:21:34.298Z,8.38
2022-07-25T00:24:01.358Z,7.18
2022-07-25T00:26:28.443Z,7.57
2022-07-25T00:28:55.430Z,7.43
2022-07-25T00:31:22.504Z,7.20
2022-07-25T00:33:49.498Z,6.65
2022-07-25T00:36:16.542Z,7.28
2022-07-25T00:38:43.583Z,6.78
2022-07-25T00:41:11.002Z,7.47
2022-07-25T00:43:38.041Z,7.07
2022-07-25T00:46:05.446Z,7.13
2022-07-25T00:48:32.586Z,6.93
2022-07-25T00:51:00.141Z,6.53
2022-07-25T00:53:27.320Z,6.90
2022-07-25T00:55:55.681Z,7.60
2022-07-25T00:58:22.785Z,6.55
2022-07-25T01:00:49.881Z,7.65
2022-07-25T01:03:17.438Z,7.18
2022-07-25T01:05:44.638Z,7.65
2022-07-25T01:08:12.635Z,6.22
2022-07-25T01:10:40.163Z,6.45
2022-07-25T01:13:07.292Z,6.20
2022-07-25T01:15:34.502Z,6.63
2022-07-25T01:18:01.682Z,7.43
2022-07-25T01:20:30.530Z,7.60
2022-07-25T01:22:58.240Z,6.55
2022-07-25T01:25:30.446Z,7.22
2022-07-25T01:27:58.266Z,6.85
2022-07-25T01:30:25.818Z,6.80
2022-07-25T01:32:53.458Z,6.40
2022-07-25T01:35:20.601Z,6.47
2022-07-25T01:37:47.841Z,8.00
2022-07-25T01:40:15.549Z,6.40
2022-07-25T01:42:43.962Z,7.15
2022-07-25T01:45:13.072Z,6.78
2022-07-25T01:47:40.842Z,7.32
2022-07-25T01:50:09.102Z,7.07
2022-07-25T01:52:37.721Z,7.20
2022-07-25T01:55:05.257Z,6.20
2022-07-25T01:57:33.524Z,7.43
2022-07-25T02:00:07.014Z,7.10
2022-07-25T02:02:34.104Z,6.50
2022-07-25T02:05:01.232Z,6.35
2022-07-25T02:07:28.277Z,6.78
2022-07-25T02:09:57.024Z,7.22
2022-07-25T02:12:24.227Z,6.80
2022-07-25T02:14:51.499Z,6.65
2022-07-25T02:17:18.749Z,5.75
2022-07-25T02:19:45.925Z,6.22
2022-07-25T02:22:13.166Z,5.97
2022-07-25T02:24:40.264Z,5.45
2022-07-25T02:27:08.275Z,5.20
2022-07-25T02:29:35.401Z,5.43
2022-07-25T02:32:02.508Z,6.05
2022-07-25T02:34:29.574Z,6.50
2022-07-25T02:36:56.595Z,6.65
2022-07-25T02:39:23.692Z,7.47
2022-07-25T02:41:50.694Z,6.47
2022-07-25T02:44:17.757Z,6.00
2022-07-25T02:46:44.809Z,6.53
2022-07-25T02:49:12.355Z,6.35
2022-07-25T02:51:39.604Z,5.13
2022-07-25T02:54:06.654Z,5.47
2022-07-25T02:56:33.690Z,6.00
2022-07-25T02:59:00.795Z,5.53
2022-07-25T03:01:27.926Z,5.90
2022-07-25T03:03:55.089Z,5.65
2022-07-25T03:06:22.241Z,5.90
2022-07-25T03:08:49.312Z,5.60
2022-07-25T03:11:16.905Z,5.72
2022-07-25T03:13:44.098Z,5.13
2022-07-25T03:16:11.369Z,5.40
2022-07-25T03:18:38.549Z,5.40
2022-07-25T03:21:06.496Z,4.78
2022-07-25T03:23:33.493Z,4.80
2022-07-25T03:26:00.451Z,5.07
2022-07-25T03:28:27.463Z,4.15
2022-07-25T03:30:54.651Z,4.38
2022-07-25T03:33:21.843Z,3.72
2022-07-25T03:35:48.877Z,3.70
2022-07-25T03:38:15.931Z,4.30
2022-07-25T03:40:42.997Z,3.50
2022-07-25T03:43:10.161Z,3.53
2022-07-25T03:45:37.236Z,3.80
2022-07-25T03:48:04.548Z,3.33
2022-07-25T03:50:31.581Z,3.38
2022-07-25T03:52:58.776Z,3.20
2022-07-25T03:55:25.779Z,3.80
2022-07-25T03:57:52.766Z,3.30
2022-07-25T04:00:19.789Z,3.20
2022-07-25T04:02:46.955Z,3.38
2022-07-25T04:05:14.107Z,3.38
2022-07-25T04:07:41.228Z,3.10
2022-07-25T04:10:09.603Z,3.05
2022-07-25T04:12:37.365Z,2.90
2022-07-25T04:15:05.108Z,2.95
2022-07-25T04:17:32.023Z,2.60
2022-07-25T04:19:58.956Z,2.90
2022-07-25T04:22:26.140Z,2.78
2022-07-25T04:24:53.312Z,3.30
2022-07-25T04:27:22.065Z,2.92
2022-07-25T04:29:49.064Z,2.78
2022-07-25T04:32:21.377Z,3.08
2022-07-25T04:34:52.351Z,3.38
2022-07-25T04:37:19.553Z,2.60
2022-07-25T04:39:46.579Z,3.20
2022-07-25T04:42:13.570Z,3.00
2022-07-25T04:44:40.706Z,3.20
2022-07-25T04:47:07.645Z,3.20
2022-07-25T04:49:52.155Z,2.90
2022-07-25T04:52:19.137Z,2.47
2022-07-25T04:54:46.223Z,2.50
2022-07-25T04:57:13.210Z,2.92
2022-07-25T04:59:40.220Z,2.72
2022-07-25T05:02:07.289Z,2.80
2022-07-25T05:04:34.978Z,2.97
2022-07-25T05:07:02.075Z,2.63
2022-07-25T05:09:29.285Z,2.95
2022-07-25T05:11:56.583Z,2.97
2022-07-25T05:14:23.911Z,2.70
2022-07-25T05:16:51.058Z,2.90
2022-07-25T05:19:18.159Z,2.80
2022-07-25T05:21:45.232Z,2.40
2022-07-25T05:24:12.350Z,2.92
2022-07-25T05:26:39.314Z,2.22
2022-07-25T05:29:06.281Z,2.78
2022-07-25T05:31:33.424Z,2.78
2022-07-25T05:34:00.547Z,2.55
2022-07-25T05:36:27.711Z,2.60
2022-07-25T05:38:54.760Z,2.80
2022-07-25T05:41:22.369Z,2.65
2022-07-25T05:43:49.576Z,2.92
2022-07-25T05:46:16.799Z,2.83
2022-07-25T05:48:44.274Z,2.60
2022-07-25T05:51:12.576Z,2.83
2022-07-25T05:53:39.721Z,2.70
2022-07-25T05:56:07.128Z,2.90
2022-07-25T05:58:34.187Z,2.85
2022-07-25T06:01:01.138Z,2.60
2022-07-25T06:03:28.152Z,2.78
2022-07-25T06:05:56.846Z,2.92
2022-07-25T06:08:23.999Z,2.95
2022-07-25T06:10:52.184Z,3.67
2022-07-25T06:13:20.909Z,4.10
2022-07-25T06:15:48.039Z,3.92
2022-07-25T06:18:15.290Z,4.82
2022-07-25T06:20:42.463Z,4.03
2022-07-25T06:23:09.868Z,3.88
2022-07-25T06:25:37.162Z,3.58
2022-07-25T06:28:04.580Z,3.35
2022-07-25T06:30:31.762Z,3.20
2022-07-25T06:32:58.739Z,3.30
2022-07-25T06:35:25.924Z,3.30
2022-07-25T06:37:52.970Z,3.50
2022-07-25T06:40:20.236Z,3.35
2022-07-25T06:42:48.076Z,3.33
2022-07-25T06:45:16.439Z,3.55
2022-07-25T06:47:44.703Z,3.42
2022-07-25T06:50:21.260Z,3.67
2022-07-25T06:52:48.746Z,3.58
2022-07-25T06:55:16.268Z,3.13
2022-07-25T06:57:43.651Z,3.15
2022-07-25T07:00:13.278Z,2.78
2022-07-25T07:02:58.695Z,2.97
2022-07-25T07:05:29.494Z,2.30
2022-07-25T07:07:57.432Z,2.88
2022-07-25T07:10:25.037Z,2.38
2022-07-25T07:13:12.656Z,2.00
2022-07-25T07:15:45.074Z,2.28
2022-07-25T07:18:12.024Z,2.50
2022-07-25T07:20:39.060Z,2.30
2022-07-25T07:23:06.089Z,2.28
2022-07-25T07:25:34.105Z,2.25
2022-07-25T07:28:01.282Z,2.00
2022-07-25T07:30:52.104Z,2.08
2022-07-25T07:33:15.454Z,2.03
2022-07-25T07:35:45.302Z,2.15
2022-07-25T07:38:12.414Z,2.35
2022-07-25T07:40:39.454Z,2.08
2022-07-25T07:43:06.459Z,2.47
2022-07-25T07:45:33.905Z,2.00
2022-07-25T07:48:00.810Z,2.28
2022-07-25T07:50:28.863Z,1.83
2022-07-25T07:52:56.747Z,2.08
2022-07-25T07:55:42.773Z,2.10
2022-07-25T07:58:17.857Z,2.17
2022-07-25T08:00:47.047Z,2.28
2022-07-25T08:03:19.294Z,2.20
2022-07-25T08:05:48.937Z,2.22
2022-07-25T08:08:16.444Z,2.50
2022-07-25T08:10:46.103Z,1.90
2022-07-25T08:13:19.101Z,2.25
2022-07-25T08:15:50.067Z,2.10
2022-07-25T08:18:18.283Z,1.90
2022-07-25T08:20:49.677Z,1.80
2022-07-25T08:23:18.135Z,1.90
2022-07-25T08:26:22.335Z,2.30
2022-07-25T08:28:59.868Z,2.30
2022-07-25T08:31:36.576Z,2.28
2022-07-25T08:34:04.208Z,2.63
2022-07-25T08:36:34.805Z,2.22
2022-07-25T08:39:02.052Z,2.25
2022-07-25T08:41:29.293Z,2.40
2022-07-25T08:43:56.470Z,2.63
2022-07-25T08:46:24.508Z,2.58
2022-07-25T08:48:52.410Z,2.28
2022-07-25T08:51:19.571Z,2.70
2022-07-25T08:53:48.543Z,2.13
2022-07-25T08:56:20.604Z,2.63
2022-07-25T08:58:49.602Z,2.53
2022-07-25T09:01:16.852Z,2.60
2022-07-25T09:03:44.328Z,2.72
2022-07-25T09:06:16.702Z,2.55
2022-07-25T09:08:59.636Z,2.33
2022-07-25T09:11:35.463Z,2.50
2022-07-25T09:14:07.449Z,2.65
2022-07-25T09:16:41.072Z,2.72
2022-07-25T09:19:16.561Z,2.60
2022-07-25T09:21:46.369Z,2.47
2022-07-25T09:24:17.485Z,2.53
2022-07-25T09:26:51.496Z,2.85
2022-07-25T09:29:31.966Z,2.60
2022-07-25T09:32:00.674Z,2.75
2022-07-25T09:34:41.699Z,2.67
2022-07-25T09:37:12.577Z,2.63
2022-07-25T09:39:51.348Z,2.60
2022-07-25T09:42:32.635Z,2.53
2022-07-25T09:45:14.864Z,2.45
2022-07-25T09:47:57.525Z,2.92
2022-07-25T09:50:28.201Z,2.90
2022-07-25T09:52:57.389Z,2.65
2022-07-25T09:55:25.033Z,2.75
2022-07-25T09:58:01.532Z,2.40
2022-07-25T10:00:32.638Z,2.40
2022-07-25T10:03:33.164Z,2.55
2022-07-25T10:06:20.420Z,2.42
2022-07-25T10:08:49.386Z,2.40
2022-07-25T10:11:25.711Z,2.17
2022-07-25T10:13:54.788Z,2.40
2022-07-25T10:16:27.247Z,2.42
2022-07-25T10:18:58.195Z,2.50
2022-07-25T10:21:28.278Z,2.25
2022-07-25T10:24:02.881Z,2.60
2022-07-25T10:26:30.903Z,2.75
2022-07-25T10:28:58.836Z,2.80
2022-07-25T10:31:39.655Z,2.63
2022-07-25T10:34:12.086Z,2.88
2022-07-25T10:36:52.939Z,2.42
2022-07-25T10:39:22.294Z,2.53
2022-07-25T10:41:59.222Z,2.50
2022-07-25T10:44:32.187Z,2.00
2022-07-25T10:47:26.949Z,2.67
2022-07-25T10:50:16.986Z,2.20
2022-07-25T10:53:01.720Z,2.13
2022-07-25T10:55:29.314Z,2.05
2022-07-25T10:58:20.273Z,2.50
2022-07-25T11:00:47.371Z,2.83
2022-07-25T11:03:18.444Z,2.30
2022-07-25T11:05:47.177Z,2.10
2022-07-25T11:08:22.575Z,2.03
2022-07-25T11:10:53.522Z,2.42
2022-07-25T11:13:26.745Z,2.13
2022-07-25T11:15:58.713Z,2.13
2022-07-25T11:18:40.777Z,2.58
2022-07-25T11:21:09.462Z,1.90
2022-07-25T11:23:37.013Z,2.25
2022-07-25T11:26:09.611Z,1.80
2022-07-25T11:28:45.938Z,2.00
2022-07-25T11:31:15.592Z,2.00
2022-07-25T11:33:46.774Z,1.85
2022-07-25T11:36:14.358Z,2.03
2022-07-25T11:38:42.624Z,1.70
2022-07-25T11:41:09.754Z,1.85
2022-07-25T11:43:36.699Z,2.00
2022-07-25T11:46:07.359Z,1.90
2022-07-25T11:48:39.272Z,2.03
2022-07-25T11:51:19.477Z,2.25
2022-07-25T11:53:50.509Z,2.50
2022-07-25T11:56:41.868Z,1.75
2022-07-25T11:59:10.696Z,1.73
2022-07-25T12:01:40.538Z,2.00
2022-07-25T12:04:14.321Z,2.50
2022-07-25T12:06:43.767Z,1.95
2022-07-25T12:09:22.324Z,2.08
2022-07-25T12:11:49.899Z,1.83
2022-07-25T12:14:16.965Z,2.13
2022-07-25T12:16:44.213Z,2.13
2022-07-25T12:19:21.152Z,2.63
2022-07-25T12:21:48.150Z,2.03
2022-07-25T12:24:15.234Z,1.40
2022-07-25T12:26:42.552Z,1.77
2022-07-25T12:29:09.993Z,1.80
2022-07-25T12:31:40.735Z,1.90
2022-07-25T12:34:07.769Z,1.98
2022-07-25T12:36:41.159Z,1.52
2022-07-25T12:39:08.656Z,1.70
2022-07-25T12:41:35.921Z,1.40
2022-07-25T12:44:04.265Z,1.40
2022-07-25T12:46:31.724Z,1.50
2022-07-25T12:48:58.771Z,1.40
2022-07-25T12:51:25.760Z,1.10
2022-07-25T12:53:52.748Z,1.20
2022-07-25T12:56:19.729Z,1.20
2022-07-25T12:58:46.831Z,1.65
2022-07-25T13:01:14.218Z,1.38
2022-07-25T13:03:41.377Z,1.38
2022-07-25T13:06:08.506Z,1.42
2022-07-25T13:08:37.785Z,1.80
2022-07-25T13:11:05.200Z,1.30
2022-07-25T13:13:32.245Z,1.13
2022-07-25T13:15:59.902Z,1.08
2022-07-25T13:18:27.415Z,1.02
2022-07-25T13:20:54.513Z,0.90
2022-07-25T13:23:21.666Z,1.13
2022-07-25T13:25:48.776Z,0.95
2022-07-25T13:28:15.793Z,0.93
2022-07-25T13:30:42.823Z,1.00
2022-07-25T13:33:10.691Z,1.20
2022-07-25T13:35:39.319Z,1.00
2022-07-25T13:38:11.290Z,0.93
2022-07-25T13:40:42.071Z,1.42
2022-07-25T13:43:14.574Z,0.80
2022-07-25T13:45:42.587Z,0.90
2022-07-25T13:48:29.117Z,1.08
2022-07-25T13:51:00.136Z,1.10
2022-07-25T13:53:30.139Z,0.90
2022-07-25T13:55:58.749Z,1.00
2022-07-25T13:58:27.200Z,0.77
2022-07-25T14:00:54.796Z,0.80
2022-07-25T14:03:22.093Z,0.80
2022-07-25T14:05:49.159Z,0.85
2022-07-25T14:08:17.194Z,0.90
2022-07-25T14:10:44.165Z,0.77
2022-07-25T14:13:13.047Z,1.02
2022-07-25T14:15:40.770Z,0.70
2022-07-25T14:18:07.962Z,0.70
2022-07-25T14:20:34.962Z,0.60
2022-07-25T14:23:01.994Z,0.70
2022-07-25T14:25:29.047Z,0.65
2022-07-25T14:27:56.068Z,0.90
2022-07-25T14:30:22.978Z,0.85
2022-07-25T14:32:50.295Z,1.35
2022-07-25T14:35:17.371Z,1.00
2022-07-25T14:37:44.431Z,0.73
2022-07-25T14:40:12.489Z,0.65
2022-07-25T14:42:41.880Z,0.90
2022-07-25T14:45:09.629Z,1.10
2022-07-25T14:47:36.767Z,1.00
2022-07-25T14:50:04.214Z,0.95
2022-07-25T14:52:31.323Z,0.90
2022-07-25T14:54:58.609Z,0.90
2022-07-25T14:57:26.171Z,0.90
2022-07-25T14:59:53.152Z,1.05
2022-07-25T15:02:20.140Z,1.00
2022-07-25T15:04:47.234Z,0.95
2022-07-25T15:07:14.317Z,0.90
2022-07-25T15:09:41.450Z,0.90
2022-07-25T15:12:12.174Z,1.40
2022-07-25T15:14:43.390Z,1.00
2022-07-25T15:17:10.365Z,0.80
2022-07-25T15:19:40.372Z,0.80
2022-07-25T15:22:07.493Z,0.75
2022-07-25T15:24:50.129Z,0.93
2022-07-25T15:27:21.500Z,0.77
2022-07-25T15:29:48.487Z,0.80
2022-07-25T15:32:15.513Z,0.95
2022-07-25T15:34:57.872Z,0.93
2022-07-25T15:37:25.096Z,0.70
2022-07-25T15:39:52.046Z,1.00
2022-07-25T15:42:18.962Z,0.88
2022-07-25T15:44:45.879Z,0.73
2022-07-25T15:47:12.976Z,0.75
2022-07-25T15:49:40.230Z,0.90
2022-07-25T15:52:10.308Z,0.90
2022-07-25T15:54:37.320Z,0.82
2022-07-25T15:57:05.620Z,0.60
2022-07-25T15:59:32.608Z,1.05
2022-07-25T16:02:00.571Z,1.25
2022-07-25T16:04:27.840Z,0.90
2022-07-25T16:06:54.903Z,1.00
2022-07-25T16:09:21.922Z,1.00
2022-07-25T16:11:48.824Z,0.80
2022-07-25T16:14:22.798Z,1.13
2022-07-25T16:16:49.930Z,0.90
2022-07-25T16:19:16.817Z,0.85
2022-07-25T16:21:44.064Z,0.90
2022-07-25T16:24:11.226Z,1.00
2022-07-25T16:26:38.249Z,1.13
2022-07-25T16:29:06.185Z,1.10
2022-07-25T16:31:33.294Z,1.35
2022-07-25T16:34:00.401Z,1.00
2022-07-25T16:36:34.389Z,1.15
2022-07-25T16:39:02.485Z,1.15
2022-07-25T16:41:29.491Z,1.20
2022-07-25T16:43:57.332Z,2.10
2022-07-25T16:46:28.362Z,0.98
2022-07-25T16:48:56.032Z,0.90
2022-07-25T16:51:23.114Z,1.30
2022-07-25T16:53:50.123Z,1.00
2022-07-25T16:56:17.352Z,0.95
2022-07-25T16:58:44.482Z,0.93
2022-07-25T17:01:11.535Z,1.05
2022-07-25T17:03:40.664Z,0.95
2022-07-25T17:06:09.338Z,0.95
2022-07-25T17:08:37.110Z,0.70
2022-07-25T17:11:05.885Z,0.93
2022-07-25T17:13:33.350Z,0.70
2022-07-25T17:16:00.486Z,1.17
2022-07-25T17:18:28.996Z,0.90
2022-07-25T17:20:56.152Z,0.88
2022-07-25T17:23:24.347Z,1.20
2022-07-25T17:25:54.194Z,1.13
2022-07-25T17:28:24.165Z,0.98
2022-07-25T17:30:52.619Z,1.20
2022-07-25T17:33:21.104Z,1.17
2022-07-25T17:35:48.207Z,1.10
2022-07-25T17:38:15.920Z,1.35
2022-07-25T17:40:42.966Z,1.40
2022-07-25T17:43:10.011Z,1.20
2022-07-25T17:45:37.363Z,1.02
2022-07-25T17:48:05.229Z,1.10
2022-07-25T17:50:32.211Z,1.05
2022-07-25T17:53:00.029Z,1.00
2022-07-25T17:55:28.896Z,0.95
2022-07-25T17:57:56.416Z,0.90
2022-07-25T18:00:25.183Z,1.10
2022-07-25T18:02:52.374Z,0.90
2022-07-25T18:05:20.705Z,0.85
2022-07-25T18:07:49.698Z,0.90
2022-07-25T18:10:18.024Z,1.10
2022-07-25T18:12:45.510Z,1.38
2022-07-25T18:15:14.916Z,1.40
2022-07-25T18:17:44.275Z,1.30
2022-07-25T18:20:15.690Z,1.40
2022-07-25T18:22:43.986Z,1.00
2022-07-25T18:25:16.604Z,1.27
2022-07-25T18:27:48.977Z,1.20
2022-07-25T18:30:17.012Z,1.10
2022-07-25T18:32:45.668Z,1.42
2022-07-25T18:35:13.590Z,1.20
2022-07-25T18:37:46.436Z,1.55
2022-07-25T18:40:14.525Z,1.42
2022-07-25T18:42:41.603Z,1.35
2022-07-25T18:45:09.689Z,1.52
2022-07-25T18:47:37.484Z,1.33
2022-07-25T18:50:10.715Z,1.20
2022-07-25T18:52:38.671Z,1.58
2022-07-25T18:55:08.900Z,1.25
2022-07-25T18:57:38.251Z,1.48
2022-07-25T19:00:08.946Z,1.30
2022-07-25T19:02:36.846Z,1.52
2022-07-25T19:05:05.536Z,1.63
2022-07-25T19:07:37.832Z,1.33
2022-07-25T19:10:08.248Z,1.58
2022-07-25T19:12:35.426Z,1.20
2022-07-25T19:15:08.042Z,1.30
2022-07-25T19:17:37.094Z,1.20
2022-07-25T19:20:05.830Z,1.15
2022-07-25T19:22:33.001Z,1.65
2022-07-25T19:25:05.497Z,1.05
2022-07-25T19:27:32.787Z,1.48
2022-07-25T19:30:07.946Z,1.33
2022-07-25T19:32:40.550Z,1.30
2022-07-25T19:35:09.355Z,1.45
2022-07-25T19:37:40.573Z,1.48
2022-07-25T19:40:18.387Z,1.35
2022-07-25T19:42:50.114Z,1.45
2022-07-25T19:45:17.109Z,1.40
2022-07-25T19:47:48.585Z,1.38
2022-07-25T19:50:20.018Z,1.50
2022-07-25T19:52:48.562Z,1.65
2022-07-25T19:55:16.387Z,1.17
2022-07-25T19:57:44.879Z,1.70
2022-07-25T20:00:12.663Z,1.48
2022-07-25T20:02:41.577Z,1.80
2022-07-25T20:05:13.727Z,1.65
2022-07-25T20:07:43.706Z,1.55
2022-07-25T20:10:11.205Z,1.48
2022-07-25T20:12:42.760Z,1.85
2022-07-25T20:15:13.833Z,1.33
2022-07-25T20:17:46.110Z,1.60
2022-07-25T20:20:13.393Z,1.77
2022-07-25T20:22:41.987Z,1.95
2022-07-25T20:25:12.996Z,1.73
2022-07-25T20:27:40.131Z,1.40
2022-07-25T20:30:09.989Z,1.42
2022-07-25T20:32:37.487Z,1.60
2022-07-25T20:35:05.640Z,1.70
2022-07-25T20:37:32.708Z,1.50
2022-07-25T20:40:00.108Z,1.63
2022-07-25T20:42:28.327Z,1.30
2022-07-25T20:44:56.794Z,1.50
2022-07-25T20:47:26.725Z,1.73
2022-07-25T20:49:53.803Z,1.52
2022-07-25T20:52:20.913Z,2.22
2022-07-25T20:54:47.910Z,1.60
2022-07-25T20:57:15.933Z,2.28
2022-07-25T20:59:42.844Z,2.13
2022-07-25T21:02:11.504Z,2.05
2022-07-25T21:04:38.555Z,2.08
2022-07-25T21:07:05.909Z,2.00
2022-07-25T21:09:34.664Z,2.00
2022-07-25T21:12:21.276Z,1.90
2022-07-25T21:14:48.426Z,2.63
2022-07-25T21:17:15.408Z,1.98
2022-07-25T21:19:42.554Z,2.10
2022-07-25T21:22:09.816Z,2.30
2022-07-25T21:24:37.111Z,2.38
2022-07-25T21:27:04.674Z,2.40
2022-07-25T21:29:31.785Z,1.90
2022-07-25T21:31:58.818Z,2.13
2022-07-25T21:34:25.960Z,2.08
2022-07-25T21:36:52.943Z,2.08
2022-07-25T21:39:19.938Z,2.25
2022-07-25T21:41:46.981Z,2.15
2022-07-25T21:44:22.364Z,2.08
2022-07-25T21:46:50.615Z,2.58
2022-07-25T21:49:41.894Z,2.40
2022-07-25T21:52:13.923Z,1.85
2022-07-25T21:54:42.953Z,2.30
2022-07-25T21:57:13.242Z,2.35
2022-07-25T21:59:45.438Z,2.50
2022-07-25T22:02:12.997Z,2.22
2022-07-25T22:04:40.565Z,2.45
2022-07-25T22:07:08.634Z,2.60
2022-07-25T22:09:36.004Z,2.72
2022-07-25T22:12:03.727Z,2.63
2022-07-25T22:14:30.717Z,2.20
2022-07-25T22:16:57.719Z,3.20
2022-07-25T22:19:24.776Z,2.65
2022-07-25T22:21:52.005Z,2.88
2022-07-25T22:24:19.325Z,3.00
2022-07-25T22:26:46.464Z,2.90
2022-07-25T22:29:13.452Z,2.58
2022-07-25T22:31:40.744Z,2.92
2022-07-25T22:34:08.223Z,3.08
2022-07-25T22:36:35.313Z,2.83
2022-07-25T22:39:02.314Z,2.85
2022-07-25T22:41:29.439Z,2.65
2022-07-25T22:43:59.618Z,3.10
2022-07-25T22:46:31.323Z,2.70
2022-07-25T22:48:59.402Z,3.03
2022-07-25T22:51:27.448Z,3.33
2022-07-25T22:53:55.350Z,2.75
2022-07-25T22:56:23.285Z,2.90
2022-07-25T22:58:50.448Z,3.28
2022-07-25T23:01:19.341Z,2.85
2022-07-25T23:03:49.787Z,2.90
2022-07-25T23:06:18.837Z,3.40
2022-07-25T23:08:46.754Z,3.50
2022-07-25T23:11:13.761Z,3.35
2022-07-25T23:13:40.850Z,3.40
2022-07-25T23:16:10.355Z,3.60
2022-07-25T23:18:38.414Z,3.08
2022-07-25T23:21:06.217Z,3.50
2022-07-25T23:23:36.113Z,4.00
2022-07-25T23:26:03.828Z,3.67
2022-07-25T23:28:30.950Z,3.70
2022-07-25T23:30:58.038Z,3.53
2022-07-25T23:33:31.631Z,4.00
2022-07-25T23:35:59.249Z,3.40
2022-07-25T23:38:26.348Z,4.05
2022-07-25T23:40:54.895Z,3.28
2022-07-25T23:43:56.947Z,3.88
2022-07-25T23:46:31.047Z,3.53
2022-07-25T23:48:59.298Z,3.03
2022-07-25T23:51:26.568Z,3.63
2022-07-25T23:53:53.781Z,3.47
2022-07-25T23:56:21.459Z,4.38
2022-07-25T23:58:50.287Z,3.70
